sensor_id;sensor_type;location;lat;lon;timestamp;P1;durP1;ratioP1;P2;durP2;ratioP2
70592;SDS011;58294;42.988;20.338;2023-09-30T00:00:57;13.05;;;5.55;;
70592;SDS011;58294;42.988;20.338;2023-09-30T00:03:23;10.93;;;7.07;;
70592;SDS011;58294;42.988;20.338;2023-09-30T00:05:49;8.20;;;6.07;;
70592;SDS011;58294;42.988;20.338;2023-09-30T00:08:15;9.15;;;7.15;;
70592;SDS011;58294;42.988;20.338;2023-09-30T00:10:40;8.07;;;6.35;;
70592;SDS011;58294;42.988;20.338;2023-09-30T00:13:06;9.70;;;6.55;;
70592;SDS011;58294;42.988;20.338;2023-09-30T00:15:32;11.10;;;7.18;;
70592;SDS011;58294;42.988;20.338;2023-09-30T00:17:58;13.45;;;8.40;;
70592;SDS011;58294;42.988;20.338;2023-09-30T00:20:25;11.75;;;7.47;;
70592;SDS011;58294;42.988;20.338;2023-09-30T00:22:50;10.63;;;7.03;;
70592;SDS011;58294;42.988;20.338;2023-09-30T00:25:16;9.25;;;7.18;;
70592;SDS011;58294;42.988;20.338;2023-09-30T00:27:42;7.57;;;5.97;;
70592;SDS011;58294;42.988;20.338;2023-09-30T00:30:08;7.90;;;6.80;;
70592;SDS011;58294;42.988;20.338;2023-09-30T00:32:34;9.35;;;6.85;;
70592;SDS011;58294;42.988;20.338;2023-09-30T00:35:02;9.77;;;6.95;;
70592;SDS011;58294;42.988;20.338;2023-09-30T00:37:28;7.70;;;6.13;;
70592;SDS011;58294;42.988;20.338;2023-09-30T00:39:54;6.50;;;5.47;;
70592;SDS011;58294;42.988;20.338;2023-09-30T00:42:20;7.28;;;5.90;;
70592;SDS011;58294;42.988;20.338;2023-09-30T00:44:46;9.25;;;5.72;;
70592;SDS011;58294;42.988;20.338;2023-09-30T00:47:13;8.13;;;6.03;;
70592;SDS011;58294;42.988;20.338;2023-09-30T00:49:40;11.73;;;9.18;;
70592;SDS011;58294;42.988;20.338;2023-09-30T00:52:08;11.25;;;8.90;;
70592;SDS011;58294;42.988;20.338;2023-09-30T00:54:35;8.70;;;7.78;;
70592;SDS011;58294;42.988;20.338;2023-09-30T00:57:03;9.80;;;7.60;;
70592;SDS011;58294;42.988;20.338;2023-09-30T00:59:30;16.77;;;8.82;;
70592;SDS011;58294;42.988;20.338;2023-09-30T01:01:58;12.07;;;8.25;;
70592;SDS011;58294;42.988;20.338;2023-09-30T01:04:28;10.50;;;7.20;;
70592;SDS011;58294;42.988;20.338;2023-09-30T01:06:54;14.65;;;10.02;;
70592;SDS011;58294;42.988;20.338;2023-09-30T01:09:22;14.88;;;9.85;;
70592;SDS011;58294;42.988;20.338;2023-09-30T01:11:49;16.52;;;10.90;;
70592;SDS011;58294;42.988;20.338;2023-09-30T01:14:27;16.58;;;11.45;;
70592;SDS011;58294;42.988;20.338;2023-09-30T01:16:54;16.92;;;11.38;;
70592;SDS011;58294;42.988;20.338;2023-09-30T01:19:20;18.50;;;11.63;;
70592;SDS011;58294;42.988;20.338;2023-09-30T01:21:50;22.65;;;13.63;;
70592;SDS011;58294;42.988;20.338;2023-09-30T01:24:26;22.10;;;13.63;;
70592;SDS011;58294;42.988;20.338;2023-09-30T01:26:52;21.15;;;12.40;;
70592;SDS011;58294;42.988;20.338;2023-09-30T01:29:18;24.38;;;12.48;;
70592;SDS011;58294;42.988;20.338;2023-09-30T01:31:44;17.60;;;9.57;;
70592;SDS011;58294;42.988;20.338;2023-09-30T01:34:13;10.70;;;7.80;;
70592;SDS011;58294;42.988;20.338;2023-09-30T01:36:40;10.05;;;6.57;;
70592;SDS011;58294;42.988;20.338;2023-09-30T01:39:07;9.05;;;6.75;;
70592;SDS011;58294;42.988;20.338;2023-09-30T01:41:35;7.72;;;6.28;;
70592;SDS011;58294;42.988;20.338;2023-09-30T01:44:01;9.35;;;6.55;;
70592;SDS011;58294;42.988;20.338;2023-09-30T01:46:27;10.00;;;6.18;;
70592;SDS011;58294;42.988;20.338;2023-09-30T01:48:53;8.00;;;6.28;;
70592;SDS011;58294;42.988;20.338;2023-09-30T01:51:19;9.10;;;6.53;;
70592;SDS011;58294;42.988;20.338;2023-09-30T01:53:44;10.55;;;7.75;;
70592;SDS011;58294;42.988;20.338;2023-09-30T01:56:10;8.00;;;6.80;;
70592;SDS011;58294;42.988;20.338;2023-09-30T01:58:36;10.00;;;5.85;;
70592;SDS011;58294;42.988;20.338;2023-09-30T02:01:02;9.60;;;5.78;;
70592;SDS011;58294;42.988;20.338;2023-09-30T02:03:29;7.13;;;5.75;;
70592;SDS011;58294;42.988;20.338;2023-09-30T02:05:55;11.82;;;6.78;;
70592;SDS011;58294;42.988;20.338;2023-09-30T02:08:21;6.82;;;5.38;;
70592;SDS011;58294;42.988;20.338;2023-09-30T02:10:47;8.50;;;5.70;;
70592;SDS011;58294;42.988;20.338;2023-09-30T02:13:13;7.07;;;5.72;;
70592;SDS011;58294;42.988;20.338;2023-09-30T02:15:42;6.90;;;5.65;;
70592;SDS011;58294;42.988;20.338;2023-09-30T02:18:08;8.75;;;5.13;;
70592;SDS011;58294;42.988;20.338;2023-09-30T02:20:35;9.23;;;5.38;;
70592;SDS011;58294;42.988;20.338;2023-09-30T02:23:05;6.57;;;5.65;;
70592;SDS011;58294;42.988;20.338;2023-09-30T02:25:31;6.85;;;6.15;;
70592;SDS011;58294;42.988;20.338;2023-09-30T02:27:58;8.70;;;5.85;;
70592;SDS011;58294;42.988;20.338;2023-09-30T02:30:25;8.40;;;5.75;;
70592;SDS011;58294;42.988;20.338;2023-09-30T02:32:52;9.95;;;6.47;;
70592;SDS011;58294;42.988;20.338;2023-09-30T02:35:18;7.05;;;5.68;;
70592;SDS011;58294;42.988;20.338;2023-09-30T02:37:45;6.28;;;5.55;;
70592;SDS011;58294;42.988;20.338;2023-09-30T02:40:11;7.57;;;5.40;;
70592;SDS011;58294;42.988;20.338;2023-09-30T02:42:40;11.02;;;5.75;;
70592;SDS011;58294;42.988;20.338;2023-09-30T02:45:06;6.57;;;5.30;;
70592;SDS011;58294;42.988;20.338;2023-09-30T02:47:33;7.60;;;6.07;;
70592;SDS011;58294;42.988;20.338;2023-09-30T02:49:59;8.50;;;5.93;;
70592;SDS011;58294;42.988;20.338;2023-09-30T02:52:25;6.80;;;5.38;;
70592;SDS011;58294;42.988;20.338;2023-09-30T02:54:52;8.15;;;6.15;;
70592;SDS011;58294;42.988;20.338;2023-09-30T02:57:18;6.70;;;5.65;;
70592;SDS011;58294;42.988;20.338;2023-09-30T02:59:44;9.82;;;7.80;;
70592;SDS011;58294;42.988;20.338;2023-09-30T03:02:10;7.60;;;6.80;;
70592;SDS011;58294;42.988;20.338;2023-09-30T03:04:36;6.53;;;5.00;;
70592;SDS011;58294;42.988;20.338;2023-09-30T03:07:02;8.02;;;5.88;;
70592;SDS011;58294;42.988;20.338;2023-09-30T03:09:28;8.13;;;5.75;;
70592;SDS011;58294;42.988;20.338;2023-09-30T03:11:55;8.05;;;6.57;;
70592;SDS011;58294;42.988;20.338;2023-09-30T03:14:21;8.10;;;6.68;;
70592;SDS011;58294;42.988;20.338;2023-09-30T03:16:48;7.47;;;6.05;;
70592;SDS011;58294;42.988;20.338;2023-09-30T03:19:14;9.18;;;6.95;;
70592;SDS011;58294;42.988;20.338;2023-09-30T03:21:41;11.80;;;9.00;;
70592;SDS011;58294;42.988;20.338;2023-09-30T03:24:08;10.38;;;8.00;;
70592;SDS011;58294;42.988;20.338;2023-09-30T03:26:34;6.40;;;5.47;;
70592;SDS011;58294;42.988;20.338;2023-09-30T03:29:00;7.13;;;6.15;;
70592;SDS011;58294;42.988;20.338;2023-09-30T03:31:26;7.03;;;6.32;;
70592;SDS011;58294;42.988;20.338;2023-09-30T03:33:52;8.48;;;7.00;;
70592;SDS011;58294;42.988;20.338;2023-09-30T03:36:21;7.53;;;6.00;;
70592;SDS011;58294;42.988;20.338;2023-09-30T03:38:50;6.07;;;5.20;;
70592;SDS011;58294;42.988;20.338;2023-09-30T03:41:20;6.85;;;5.40;;
70592;SDS011;58294;42.988;20.338;2023-09-30T03:43:45;8.00;;;5.65;;
70592;SDS011;58294;42.988;20.338;2023-09-30T03:46:12;6.30;;;5.47;;
70592;SDS011;58294;42.988;20.338;2023-09-30T03:48:38;8.38;;;6.75;;
70592;SDS011;58294;42.988;20.338;2023-09-30T03:51:13;10.75;;;7.35;;
70592;SDS011;58294;42.988;20.338;2023-09-30T03:53:46;10.95;;;8.00;;
70592;SDS011;58294;42.988;20.338;2023-09-30T03:56:12;7.82;;;5.30;;
70592;SDS011;58294;42.988;20.338;2023-09-30T03:58:39;6.22;;;5.07;;
70592;SDS011;58294;42.988;20.338;2023-09-30T04:01:08;6.20;;;5.53;;
70592;SDS011;58294;42.988;20.338;2023-09-30T04:03:38;6.00;;;5.40;;
70592;SDS011;58294;42.988;20.338;2023-09-30T04:06:05;7.72;;;7.03;;
70592;SDS011;58294;42.988;20.338;2023-09-30T04:08:34;6.47;;;5.88;;
70592;SDS011;58294;42.988;20.338;2023-09-30T04:11:00;6.47;;;5.68;;
70592;SDS011;58294;42.988;20.338;2023-09-30T04:13:29;8.80;;;5.45;;
70592;SDS011;58294;42.988;20.338;2023-09-30T04:15:55;7.80;;;6.45;;
70592;SDS011;58294;42.988;20.338;2023-09-30T04:18:23;7.68;;;6.47;;
70592;SDS011;58294;42.988;20.338;2023-09-30T04:20:52;11.98;;;9.30;;
70592;SDS011;58294;42.988;20.338;2023-09-30T04:23:18;8.35;;;6.95;;
70592;SDS011;58294;42.988;20.338;2023-09-30T04:25:47;10.10;;;8.27;;
70592;SDS011;58294;42.988;20.338;2023-09-30T04:28:14;11.68;;;7.50;;
70592;SDS011;58294;42.988;20.338;2023-09-30T04:30:45;7.40;;;6.20;;
70592;SDS011;58294;42.988;20.338;2023-09-30T04:33:12;7.72;;;5.00;;
70592;SDS011;58294;42.988;20.338;2023-09-30T04:35:38;7.97;;;5.65;;
70592;SDS011;58294;42.988;20.338;2023-09-30T04:38:04;7.18;;;5.90;;
70592;SDS011;58294;42.988;20.338;2023-09-30T04:40:30;9.57;;;5.28;;
70592;SDS011;58294;42.988;20.338;2023-09-30T04:42:57;9.32;;;6.40;;
70592;SDS011;58294;42.988;20.338;2023-09-30T04:45:26;5.72;;;4.32;;
70592;SDS011;58294;42.988;20.338;2023-09-30T04:47:52;6.03;;;3.95;;
70592;SDS011;58294;42.988;20.338;2023-09-30T04:50:21;4.75;;;4.10;;
70592;SDS011;58294;42.988;20.338;2023-09-30T04:52:47;6.40;;;4.90;;
70592;SDS011;58294;42.988;20.338;2023-09-30T04:55:14;6.32;;;4.47;;
70592;SDS011;58294;42.988;20.338;2023-09-30T04:57:46;4.32;;;3.92;;
70592;SDS011;58294;42.988;20.338;2023-09-30T05:00:13;7.75;;;4.60;;
70592;SDS011;58294;42.988;20.338;2023-09-30T05:02:40;8.50;;;4.68;;
70592;SDS011;58294;42.988;20.338;2023-09-30T05:05:06;5.60;;;4.95;;
70592;SDS011;58294;42.988;20.338;2023-09-30T05:07:32;6.28;;;4.63;;
70592;SDS011;58294;42.988;20.338;2023-09-30T05:09:58;7.55;;;6.00;;
70592;SDS011;58294;42.988;20.338;2023-09-30T05:12:24;6.03;;;5.40;;
70592;SDS011;58294;42.988;20.338;2023-09-30T05:14:51;8.45;;;5.82;;
70592;SDS011;58294;42.988;20.338;2023-09-30T05:17:17;6.55;;;5.60;;
70592;SDS011;58294;42.988;20.338;2023-09-30T05:19:43;8.88;;;5.55;;
70592;SDS011;58294;42.988;20.338;2023-09-30T05:22:09;7.60;;;5.80;;
70592;SDS011;58294;42.988;20.338;2023-09-30T05:24:35;8.05;;;5.68;;
70592;SDS011;58294;42.988;20.338;2023-09-30T05:27:01;11.95;;;6.22;;
70592;SDS011;58294;42.988;20.338;2023-09-30T05:29:27;5.97;;;5.03;;
70592;SDS011;58294;42.988;20.338;2023-09-30T05:31:53;5.20;;;4.70;;
70592;SDS011;58294;42.988;20.338;2023-09-30T05:34:19;8.07;;;4.70;;
70592;SDS011;58294;42.988;20.338;2023-09-30T05:36:45;6.65;;;4.75;;
70592;SDS011;58294;42.988;20.338;2023-09-30T05:39:11;4.90;;;4.38;;
70592;SDS011;58294;42.988;20.338;2023-09-30T05:41:37;6.57;;;4.88;;
70592;SDS011;58294;42.988;20.338;2023-09-30T05:44:04;5.85;;;4.57;;
70592;SDS011;58294;42.988;20.338;2023-09-30T05:46:30;6.45;;;4.50;;
70592;SDS011;58294;42.988;20.338;2023-09-30T05:48:56;6.85;;;4.63;;
70592;SDS011;58294;42.988;20.338;2023-09-30T05:51:22;7.20;;;5.30;;
70592;SDS011;58294;42.988;20.338;2023-09-30T05:53:47;7.55;;;6.28;;
70592;SDS011;58294;42.988;20.338;2023-09-30T05:56:13;6.85;;;5.80;;
70592;SDS011;58294;42.988;20.338;2023-09-30T05:58:40;8.80;;;6.25;;
70592;SDS011;58294;42.988;20.338;2023-09-30T06:01:07;11.07;;;6.95;;
70592;SDS011;58294;42.988;20.338;2023-09-30T06:03:36;16.38;;;6.15;;
70592;SDS011;58294;42.988;20.338;2023-09-30T06:06:13;11.23;;;7.85;;
70592;SDS011;58294;42.988;20.338;2023-09-30T06:08:41;6.85;;;6.15;;
70592;SDS011;58294;42.988;20.338;2023-09-30T06:11:20;9.18;;;6.53;;
70592;SDS011;58294;42.988;20.338;2023-09-30T06:13:55;10.63;;;7.47;;
70592;SDS011;58294;42.988;20.338;2023-09-30T06:16:26;11.82;;;7.45;;
70592;SDS011;58294;42.988;20.338;2023-09-30T06:18:53;10.27;;;8.18;;
70592;SDS011;58294;42.988;20.338;2023-09-30T06:21:19;11.30;;;7.68;;
70592;SDS011;58294;42.988;20.338;2023-09-30T06:23:49;9.23;;;7.47;;
70592;SDS011;58294;42.988;20.338;2023-09-30T06:26:17;8.73;;;7.07;;
70592;SDS011;58294;42.988;20.338;2023-09-30T06:28:43;12.68;;;7.97;;
70592;SDS011;58294;42.988;20.338;2023-09-30T06:31:10;13.00;;;8.20;;
70592;SDS011;58294;42.988;20.338;2023-09-30T06:33:36;10.35;;;7.43;;
70592;SDS011;58294;42.988;20.338;2023-09-30T06:36:13;12.32;;;7.68;;
70592;SDS011;58294;42.988;20.338;2023-09-30T06:38:39;12.40;;;7.55;;
70592;SDS011;58294;42.988;20.338;2023-09-30T06:41:07;8.90;;;7.38;;
70592;SDS011;58294;42.988;20.338;2023-09-30T06:43:33;12.70;;;8.00;;
70592;SDS011;58294;42.988;20.338;2023-09-30T06:46:05;9.90;;;8.20;;
70592;SDS011;58294;42.988;20.338;2023-09-30T06:48:33;8.65;;;7.63;;
70592;SDS011;58294;42.988;20.338;2023-09-30T06:50:58;6.45;;;5.85;;
70592;SDS011;58294;42.988;20.338;2023-09-30T06:53:25;11.85;;;8.75;;
70592;SDS011;58294;42.988;20.338;2023-09-30T06:55:51;13.63;;;9.95;;
70592;SDS011;58294;42.988;20.338;2023-09-30T06:58:17;10.43;;;8.23;;
70592;SDS011;58294;42.988;20.338;2023-09-30T07:00:46;11.13;;;9.40;;
70592;SDS011;58294;42.988;20.338;2023-09-30T07:03:19;12.70;;;8.73;;
70592;SDS011;58294;42.988;20.338;2023-09-30T07:05:45;15.18;;;9.57;;
70592;SDS011;58294;42.988;20.338;2023-09-30T07:08:14;12.55;;;9.65;;
70592;SDS011;58294;42.988;20.338;2023-09-30T07:10:41;15.57;;;10.15;;
70592;SDS011;58294;42.988;20.338;2023-09-30T07:13:07;15.93;;;11.25;;
70592;SDS011;58294;42.988;20.338;2023-09-30T07:15:33;22.33;;;13.20;;
70592;SDS011;58294;42.988;20.338;2023-09-30T07:17:59;18.90;;;11.07;;
70592;SDS011;58294;42.988;20.338;2023-09-30T07:20:24;16.33;;;10.77;;
70592;SDS011;58294;42.988;20.338;2023-09-30T07:22:51;14.43;;;10.20;;
70592;SDS011;58294;42.988;20.338;2023-09-30T07:25:17;13.82;;;10.32;;
70592;SDS011;58294;42.988;20.338;2023-09-30T07:27:44;10.23;;;8.65;;
70592;SDS011;58294;42.988;20.338;2023-09-30T07:30:10;8.73;;;7.07;;
70592;SDS011;58294;42.988;20.338;2023-09-30T07:32:43;8.20;;;6.22;;
70592;SDS011;58294;42.988;20.338;2023-09-30T07:35:09;10.90;;;9.10;;
70592;SDS011;58294;42.988;20.338;2023-09-30T07:37:36;16.25;;;8.75;;
70592;SDS011;58294;42.988;20.338;2023-09-30T07:40:02;10.63;;;7.63;;
70592;SDS011;58294;42.988;20.338;2023-09-30T07:42:28;12.77;;;7.60;;
70592;SDS011;58294;42.988;20.338;2023-09-30T07:44:55;11.40;;;8.93;;
70592;SDS011;58294;42.988;20.338;2023-09-30T07:47:20;12.38;;;9.00;;
70592;SDS011;58294;42.988;20.338;2023-09-30T07:49:46;10.85;;;9.23;;
70592;SDS011;58294;42.988;20.338;2023-09-30T07:52:12;13.57;;;9.10;;
70592;SDS011;58294;42.988;20.338;2023-09-30T07:54:38;16.58;;;10.70;;
70592;SDS011;58294;42.988;20.338;2023-09-30T07:57:03;13.98;;;9.52;;
70592;SDS011;58294;42.988;20.338;2023-09-30T07:59:29;10.80;;;8.38;;
70592;SDS011;58294;42.988;20.338;2023-09-30T08:01:55;11.27;;;8.30;;
70592;SDS011;58294;42.988;20.338;2023-09-30T08:04:22;14.63;;;9.38;;
70592;SDS011;58294;42.988;20.338;2023-09-30T08:06:48;11.80;;;8.07;;
70592;SDS011;58294;42.988;20.338;2023-09-30T08:09:16;10.45;;;8.35;;
70592;SDS011;58294;42.988;20.338;2023-09-30T08:11:43;11.45;;;9.00;;
70592;SDS011;58294;42.988;20.338;2023-09-30T08:14:09;8.88;;;8.00;;
70592;SDS011;58294;42.988;20.338;2023-09-30T08:16:36;9.43;;;8.25;;
70592;SDS011;58294;42.988;20.338;2023-09-30T08:19:02;11.60;;;8.68;;
70592;SDS011;58294;42.988;20.338;2023-09-30T08:21:28;12.90;;;8.80;;
70592;SDS011;58294;42.988;20.338;2023-09-30T08:23:55;8.88;;;7.18;;
70592;SDS011;58294;42.988;20.338;2023-09-30T08:26:22;11.05;;;8.32;;
70592;SDS011;58294;42.988;20.338;2023-09-30T08:28:48;12.25;;;9.70;;
70592;SDS011;58294;42.988;20.338;2023-09-30T08:31:14;11.43;;;9.30;;
70592;SDS011;58294;42.988;20.338;2023-09-30T08:33:40;12.50;;;9.32;;
70592;SDS011;58294;42.988;20.338;2023-09-30T08:36:08;13.15;;;10.38;;
70592;SDS011;58294;42.988;20.338;2023-09-30T08:38:35;13.85;;;10.27;;
70592;SDS011;58294;42.988;20.338;2023-09-30T08:41:01;14.85;;;12.07;;
70592;SDS011;58294;42.988;20.338;2023-09-30T08:43:28;12.65;;;9.70;;
70592;SDS011;58294;42.988;20.338;2023-09-30T08:45:57;14.15;;;11.18;;
70592;SDS011;58294;42.988;20.338;2023-09-30T08:48:24;13.27;;;11.43;;
70592;SDS011;58294;42.988;20.338;2023-09-30T08:50:52;15.35;;;11.45;;
70592;SDS011;58294;42.988;20.338;2023-09-30T08:53:23;14.80;;;10.90;;
70592;SDS011;58294;42.988;20.338;2023-09-30T08:55:52;13.25;;;10.88;;
70592;SDS011;58294;42.988;20.338;2023-09-30T08:58:19;17.35;;;11.27;;
70592;SDS011;58294;42.988;20.338;2023-09-30T09:00:48;12.20;;;10.32;;
70592;SDS011;58294;42.988;20.338;2023-09-30T09:03:15;16.23;;;9.82;;
70592;SDS011;58294;42.988;20.338;2023-09-30T09:05:43;13.02;;;9.90;;
70592;SDS011;58294;42.988;20.338;2023-09-30T09:08:09;14.57;;;10.63;;
70592;SDS011;58294;42.988;20.338;2023-09-30T09:10:34;13.07;;;9.48;;
70592;SDS011;58294;42.988;20.338;2023-09-30T09:13:00;12.10;;;10.80;;
70592;SDS011;58294;42.988;20.338;2023-09-30T09:15:27;23.05;;;18.05;;
70592;SDS011;58294;42.988;20.338;2023-09-30T09:17:53;19.63;;;15.57;;
70592;SDS011;58294;42.988;20.338;2023-09-30T09:20:23;13.43;;;11.60;;
70592;SDS011;58294;42.988;20.338;2023-09-30T09:22:53;15.82;;;10.70;;
70592;SDS011;58294;42.988;20.338;2023-09-30T09:25:23;21.13;;;15.43;;
70592;SDS011;58294;42.988;20.338;2023-09-30T09:27:52;16.83;;;12.82;;
70592;SDS011;58294;42.988;20.338;2023-09-30T09:35:23;17.23;;;12.60;;
70592;SDS011;58294;42.988;20.338;2023-09-30T09:38:02;12.90;;;9.32;;
70592;SDS011;58294;42.988;20.338;2023-09-30T09:40:32;16.57;;;10.70;;
70592;SDS011;58294;42.988;20.338;2023-09-30T09:43:05;13.85;;;9.63;;
70592;SDS011;58294;42.988;20.338;2023-09-30T09:45:36;16.52;;;11.90;;
70592;SDS011;58294;42.988;20.338;2023-09-30T09:48:05;8.13;;;5.22;;
70592;SDS011;58294;42.988;20.338;2023-09-30T09:50:32;9.25;;;5.53;;
70592;SDS011;58294;42.988;20.338;2023-09-30T09:52:58;8.35;;;5.80;;
70592;SDS011;58294;42.988;20.338;2023-09-30T09:55:25;8.23;;;5.68;;
70592;SDS011;58294;42.988;20.338;2023-09-30T09:57:52;14.30;;;6.35;;
70592;SDS011;58294;42.988;20.338;2023-09-30T10:00:20;10.50;;;4.68;;
70592;SDS011;58294;42.988;20.338;2023-09-30T10:02:50;8.07;;;5.20;;
70592;SDS011;58294;42.988;20.338;2023-09-30T10:05:17;11.57;;;5.35;;
70592;SDS011;58294;42.988;20.338;2023-09-30T10:10:17;7.05;;;5.25;;
70592;SDS011;58294;42.988;20.338;2023-09-30T10:12:45;8.77;;;5.45;;
70592;SDS011;58294;42.988;20.338;2023-09-30T10:15:45;8.35;;;5.18;;
70592;SDS011;58294;42.988;20.338;2023-09-30T10:18:07;8.07;;;5.50;;
70592;SDS011;58294;42.988;20.338;2023-09-30T10:20:38;5.88;;;5.28;;
70592;SDS011;58294;42.988;20.338;2023-09-30T10:25:50;7.38;;;4.45;;
70592;SDS011;58294;42.988;20.338;2023-09-30T10:28:46;6.70;;;5.35;;
70592;SDS011;58294;42.988;20.338;2023-09-30T10:31:22;7.00;;;5.20;;
70592;SDS011;58294;42.988;20.338;2023-09-30T10:36:35;7.53;;;5.15;;
70592;SDS011;58294;42.988;20.338;2023-09-30T10:39:04;5.95;;;4.57;;
70592;SDS011;58294;42.988;20.338;2023-09-30T10:46:51;6.72;;;5.65;;
70592;SDS011;58294;42.988;20.338;2023-09-30T10:49:38;6.65;;;5.50;;
70592;SDS011;58294;42.988;20.338;2023-09-30T10:52:04;8.23;;;5.05;;
70592;SDS011;58294;42.988;20.338;2023-09-30T10:54:30;7.43;;;6.05;;
70592;SDS011;58294;42.988;20.338;2023-09-30T10:56:58;9.77;;;5.32;;
70592;SDS011;58294;42.988;20.338;2023-09-30T10:59:26;9.02;;;5.78;;
70592;SDS011;58294;42.988;20.338;2023-09-30T11:01:55;11.65;;;8.00;;
70592;SDS011;58294;42.988;20.338;2023-09-30T11:04:21;7.60;;;5.43;;
70592;SDS011;58294;42.988;20.338;2023-09-30T11:06:48;6.53;;;4.57;;
70592;SDS011;58294;42.988;20.338;2023-09-30T11:09:17;18.23;;;7.57;;
70592;SDS011;58294;42.988;20.338;2023-09-30T11:11:48;13.00;;;6.72;;
70592;SDS011;58294;42.988;20.338;2023-09-30T11:16:48;9.15;;;5.32;;
70592;SDS011;58294;42.988;20.338;2023-09-30T11:19:16;8.80;;;5.00;;
70592;SDS011;58294;42.988;20.338;2023-09-30T11:21:42;6.95;;;5.32;;
70592;SDS011;58294;42.988;20.338;2023-09-30T11:24:11;4.93;;;4.38;;
70592;SDS011;58294;42.988;20.338;2023-09-30T11:26:38;7.72;;;5.30;;
70592;SDS011;58294;42.988;20.338;2023-09-30T11:29:09;7.07;;;6.13;;
70592;SDS011;58294;42.988;20.338;2023-09-30T11:31:37;8.02;;;5.63;;
70592;SDS011;58294;42.988;20.338;2023-09-30T11:34:03;6.15;;;5.55;;
70592;SDS011;58294;42.988;20.338;2023-09-30T11:36:30;8.45;;;5.25;;
70592;SDS011;58294;42.988;20.338;2023-09-30T11:38:56;8.10;;;5.57;;
70592;SDS011;58294;42.988;20.338;2023-09-30T11:41:31;7.72;;;4.95;;
70592;SDS011;58294;42.988;20.338;2023-09-30T11:47:00;6.68;;;5.25;;
70592;SDS011;58294;42.988;20.338;2023-09-30T11:49:33;7.22;;;5.00;;
70592;SDS011;58294;42.988;20.338;2023-09-30T11:52:00;7.30;;;5.78;;
70592;SDS011;58294;42.988;20.338;2023-09-30T11:54:37;6.25;;;5.40;;
70592;SDS011;58294;42.988;20.338;2023-09-30T11:57:06;7.38;;;5.38;;
70592;SDS011;58294;42.988;20.338;2023-09-30T11:59:35;8.02;;;5.07;;
70592;SDS011;58294;42.988;20.338;2023-09-30T12:02:01;6.03;;;5.43;;
70592;SDS011;58294;42.988;20.338;2023-09-30T12:04:28;6.20;;;5.10;;
70592;SDS011;58294;42.988;20.338;2023-09-30T12:06:55;6.82;;;5.00;;
70592;SDS011;58294;42.988;20.338;2023-09-30T12:09:22;6.68;;;5.50;;
70592;SDS011;58294;42.988;20.338;2023-09-30T12:11:50;6.22;;;5.15;;
70592;SDS011;58294;42.988;20.338;2023-09-30T12:14:16;8.15;;;5.28;;
70592;SDS011;58294;42.988;20.338;2023-09-30T12:16:43;8.80;;;5.55;;
70592;SDS011;58294;42.988;20.338;2023-09-30T12:19:13;9.07;;;5.43;;
70592;SDS011;58294;42.988;20.338;2023-09-30T12:21:41;8.68;;;5.18;;
70592;SDS011;58294;42.988;20.338;2023-09-30T12:24:07;7.40;;;5.60;;
70592;SDS011;58294;42.988;20.338;2023-09-30T12:26:35;7.38;;;4.82;;
70592;SDS011;58294;42.988;20.338;2023-09-30T12:29:05;9.90;;;5.95;;
70592;SDS011;58294;42.988;20.338;2023-09-30T12:31:32;14.98;;;6.22;;
70592;SDS011;58294;42.988;20.338;2023-09-30T12:33:58;8.55;;;5.03;;
70592;SDS011;58294;42.988;20.338;2023-09-30T12:36:25;8.55;;;5.78;;
70592;SDS011;58294;42.988;20.338;2023-09-30T12:38:50;8.25;;;5.32;;
70592;SDS011;58294;42.988;20.338;2023-09-30T12:41:16;7.35;;;5.43;;
70592;SDS011;58294;42.988;20.338;2023-09-30T12:43:44;7.82;;;6.68;;
70592;SDS011;58294;42.988;20.338;2023-09-30T12:46:10;6.53;;;5.40;;
70592;SDS011;58294;42.988;20.338;2023-09-30T12:48:38;6.40;;;5.57;;
70592;SDS011;58294;42.988;20.338;2023-09-30T12:51:07;7.05;;;5.88;;
70592;SDS011;58294;42.988;20.338;2023-09-30T12:53:34;8.48;;;6.47;;
70592;SDS011;58294;42.988;20.338;2023-09-30T12:56:00;7.15;;;5.80;;
70592;SDS011;58294;42.988;20.338;2023-09-30T12:58:26;8.73;;;5.53;;
70592;SDS011;58294;42.988;20.338;2023-09-30T13:00:55;8.90;;;6.10;;
70592;SDS011;58294;42.988;20.338;2023-09-30T13:03:21;9.27;;;6.05;;
70592;SDS011;58294;42.988;20.338;2023-09-30T13:05:48;5.50;;;4.75;;
70592;SDS011;58294;42.988;20.338;2023-09-30T13:08:14;7.82;;;6.10;;
70592;SDS011;58294;42.988;20.338;2023-09-30T13:10:40;8.85;;;5.90;;
70592;SDS011;58294;42.988;20.338;2023-09-30T13:13:06;7.80;;;6.40;;
70592;SDS011;58294;42.988;20.338;2023-09-30T13:15:32;7.63;;;5.85;;
70592;SDS011;58294;42.988;20.338;2023-09-30T13:17:58;9.55;;;6.07;;
70592;SDS011;58294;42.988;20.338;2023-09-30T13:20:24;10.00;;;5.60;;
70592;SDS011;58294;42.988;20.338;2023-09-30T13:22:50;9.98;;;6.25;;
70592;SDS011;58294;42.988;20.338;2023-09-30T13:25:16;8.07;;;5.70;;
70592;SDS011;58294;42.988;20.338;2023-09-30T13:27:42;8.48;;;6.00;;
70592;SDS011;58294;42.988;20.338;2023-09-30T13:30:08;10.07;;;6.25;;
70592;SDS011;58294;42.988;20.338;2023-09-30T13:32:35;10.18;;;6.50;;
70592;SDS011;58294;42.988;20.338;2023-09-30T13:35:04;7.63;;;6.18;;
70592;SDS011;58294;42.988;20.338;2023-09-30T13:37:31;10.20;;;6.25;;
70592;SDS011;58294;42.988;20.338;2023-09-30T13:40:01;7.65;;;6.07;;
70592;SDS011;58294;42.988;20.338;2023-09-30T13:42:29;10.68;;;5.95;;
70592;SDS011;58294;42.988;20.338;2023-09-30T13:44:55;7.07;;;6.32;;
70592;SDS011;58294;42.988;20.338;2023-09-30T13:47:25;8.75;;;6.80;;
70592;SDS011;58294;42.988;20.338;2023-09-30T13:49:51;5.95;;;5.22;;
70592;SDS011;58294;42.988;20.338;2023-09-30T13:52:17;8.77;;;5.75;;
70592;SDS011;58294;42.988;20.338;2023-09-30T13:54:43;10.73;;;6.03;;
70592;SDS011;58294;42.988;20.338;2023-09-30T13:57:09;7.10;;;6.00;;
70592;SDS011;58294;42.988;20.338;2023-09-30T13:59:35;10.45;;;6.05;;
70592;SDS011;58294;42.988;20.338;2023-09-30T14:02:04;8.35;;;6.18;;
70592;SDS011;58294;42.988;20.338;2023-09-30T14:04:30;9.68;;;6.55;;
70592;SDS011;58294;42.988;20.338;2023-09-30T14:07:02;9.05;;;7.00;;
70592;SDS011;58294;42.988;20.338;2023-09-30T14:09:28;7.82;;;6.25;;
70592;SDS011;58294;42.988;20.338;2023-09-30T14:11:54;12.65;;;7.30;;
70592;SDS011;58294;42.988;20.338;2023-09-30T14:14:20;8.93;;;7.00;;
70592;SDS011;58294;42.988;20.338;2023-09-30T14:16:46;9.30;;;6.47;;
70592;SDS011;58294;42.988;20.338;2023-09-30T14:19:12;7.45;;;5.90;;
70592;SDS011;58294;42.988;20.338;2023-09-30T14:21:39;11.55;;;6.88;;
70592;SDS011;58294;42.988;20.338;2023-09-30T14:24:05;10.90;;;7.10;;
70592;SDS011;58294;42.988;20.338;2023-09-30T14:26:31;8.93;;;7.05;;
70592;SDS011;58294;42.988;20.338;2023-09-30T14:28:58;9.07;;;6.47;;
70592;SDS011;58294;42.988;20.338;2023-09-30T14:31:24;7.60;;;6.80;;
70592;SDS011;58294;42.988;20.338;2023-09-30T14:33:50;10.40;;;6.38;;
70592;SDS011;58294;42.988;20.338;2023-09-30T14:36:17;8.35;;;6.40;;
70592;SDS011;58294;42.988;20.338;2023-09-30T14:38:44;7.15;;;6.30;;
70592;SDS011;58294;42.988;20.338;2023-09-30T14:41:10;10.90;;;7.47;;
70592;SDS011;58294;42.988;20.338;2023-09-30T14:43:39;10.43;;;6.43;;
70592;SDS011;58294;42.988;20.338;2023-09-30T14:46:05;7.93;;;6.90;;
70592;SDS011;58294;42.988;20.338;2023-09-30T14:48:33;7.18;;;5.97;;
70592;SDS011;58294;42.988;20.338;2023-09-30T14:51:01;10.20;;;6.82;;
70592;SDS011;58294;42.988;20.338;2023-09-30T14:53:30;10.85;;;6.68;;